Time;durP1;ratioP1;P1;durP2;ratioP2;P2;SDS_P1;SDS_P2;PMS_P1;PMS_P2;Temp;Humidity;BMP_temperature;BMP_pressure;BME280_temperature;BME280_humidity;BME280_pressure;Samples;Min_cycle;Max_cycle;Signal;HPM_P1;HPM_P2
2022/03/29 00:00:06;;;;;;;30.17;4.10;;;27.60;30.70;;;;;;5002022;28;20066;-69
2022/03/29 00:02:32;;;;;;;40.50;4.88;;;27.40;31.40;;;;;;4988414;28;20073;-66
2022/03/29 00:05:04;;;;;;;34.08;4.07;;;27.20;31.80;;;;;;4975301;28;20090;-66
2022/03/29 00:07:30;;;;;;;67.50;6.50;;;27.20;31.30;;;;;;4988088;28;20744;-70
2022/03/29 00:09:57;;;;;;;78.45;7.28;;;26.90;34.40;;;;;;4982925;28;20073;-68
2022/03/29 00:12:23;;;;;;;691.97;51.42;;;26.80;34.80;;;;;;4973700;28;20070;-69
2022/03/29 00:14:50;;;;;;;74.88;7.15;;;26.70;35.10;;;;;;4987066;28;20085;-70
2022/03/29 00:17:16;;;;;;;263.60;19.55;;;26.50;36.20;;;;;;4986527;28;20074;-66
2022/03/29 00:19:43;;;;;;;273.00;17.60;;;26.50;35.80;;;;;;4986609;28;20081;-68
2022/03/29 00:22:09;;;;;;;51.22;5.65;;;26.50;35.70;;;;;;4972448;28;20120;-68
2022/03/29 00:24:35;;;;;;;45.85;4.75;;;26.40;35.20;;;;;;4983979;28;20462;-68
2022/03/29 00:27:02;;;;;;;95.93;8.35;;;26.40;35.40;;;;;;4985878;28;20104;-72
2022/03/29 00:29:28;;;;;;;144.07;10.73;;;26.30;35.60;;;;;;4974364;28;20782;-69
2022/03/29 00:31:56;;;;;;;192.50;12.95;;;26.10;36.00;;;;;;4980091;28;20518;-65
2022/03/29 00:34:22;;;;;;;269.52;19.20;;;26.00;36.10;;;;;;4982451;28;20070;-66
2022/03/29 00:36:49;;;;;;;123.32;8.20;;;26.00;35.90;;;;;;4986814;28;20198;-66
2022/03/29 00:39:16;;;;;;;85.35;6.20;;;26.00;35.20;;;;;;4969447;28;20085;-64
2022/03/29 00:41:42;;;;;;;46.80;3.90;;;25.80;35.10;;;;;;4987783;28;20568;-66
2022/03/29 00:44:09;;;;;;;51.50;4.25;;;25.80;35.60;;;;;;5004165;28;20430;-66
2022/03/29 00:46:35;;;;;;;46.70;3.38;;;25.70;36.20;;;;;;4998545;28;20078;-66
2022/03/29 00:49:02;;;;;;;130.80;7.07;;;25.50;36.60;;;;;;4993294;28;20069;-65
2022/03/29 00:51:28;;;;;;;87.38;5.95;;;25.20;37.40;;;;;;4987139;28;20228;-64
2022/03/29 00:53:55;;;;;;;103.18;5.38;;;25.10;38.00;;;;;;4963174;28;20078;-66
2022/03/29 00:56:22;;;;;;;266.65;14.60;;;24.80;38.60;;;;;;4984880;28;20090;-65
2022/03/29 00:58:49;;;;;;;94.28;5.05;;;24.60;39.00;;;;;;4973006;28;20104;-64
2022/03/29 01:01:16;;;;;;;45.95;4.20;;;24.50;39.70;;;;;;4971815;28;20116;-65
2022/03/29 01:03:43;;;;;;;100.90;5.75;;;24.40;40.20;;;;;;4986927;28;20559;-63
2022/03/29 01:06:09;;;;;;;87.18;5.30;;;24.30;40.40;;;;;;4975810;28;20067;-64
2022/03/29 01:08:36;;;;;;;54.15;4.95;;;24.20;40.70;;;;;;4959940;28;20092;-65
2022/03/29 01:11:06;;;;;;;56.25;3.28;;;24.30;40.90;;;;;;4973370;28;20070;-64
2022/03/29 01:13:33;;;;;;;63.30;4.20;;;24.20;40.90;;;;;;4969028;28;20091;-66
2022/03/29 01:17:38;;;;;;;35.30;2.42;;;24.20;41.20;;;;;;4974783;28;20534;-64
2022/03/29 01:18:50;;;;;;;25.67;2.58;;;24.00;41.80;;;;;;4975518;28;20415;-64
2022/03/29 01:21:19;;;;;;;34.30;2.90;;;24.00;42.20;;;;;;4969851;28;20090;-64
2022/03/29 01:23:47;;;;;;;31.95;2.67;;;24.00;42.30;;;;;;4968432;28;20094;-65
2022/03/29 01:26:18;;;;;;;23.15;3.17;;;23.90;42.70;;;;;;4978764;28;20082;-67
2022/03/29 01:28:45;;;;;;;26.83;2.70;;;23.80;43.00;;;;;;4986765;28;20107;-67
2022/03/29 01:31:13;;;;;;;24.95;2.17;;;23.70;43.20;;;;;;4969935;28;20478;-67
2022/03/29 01:33:40;;;;;;;28.67;2.60;;;23.70;43.30;;;;;;4971822;28;20521;-67
2022/03/29 01:36:07;;;;;;;23.30;2.75;;;23.70;43.00;;;;;;4985937;28;20104;-67
2022/03/29 01:38:33;;;;;;;28.88;3.03;;;23.70;43.00;;;;;;4973194;28;20617;-64
2022/03/29 01:41:05;;;;;;;36.25;3.10;;;23.70;42.90;;;;;;4973228;28;20093;-65
2022/03/29 01:43:33;;;;;;;27.77;3.22;;;23.80;42.70;;;;;;4984972;28;20479;-67
2022/03/29 01:46:00;;;;;;;70.60;4.60;;;23.80;42.50;;;;;;4984626;28;20098;-66
2022/03/29 01:48:27;;;;;;;25.13;2.72;;;23.90;43.70;;;;;;4974026;28;20074;-66
2022/03/29 01:50:54;;;;;;;29.40;3.08;;;23.90;45.30;;;;;;4978094;28;20077;-66
2022/03/29 01:53:26;;;;;;;20.83;2.30;;;24.00;45.70;;;;;;4973429;28;20121;-66
2022/03/29 01:55:59;;;;;;;45.45;2.83;;;24.00;43.50;;;;;;4974069;28;20563;-67
2022/03/29 01:58:29;;;;;;;40.28;3.35;;;24.00;41.50;;;;;;4984908;28;20101;-67
2022/03/29 02:00:56;;;;;;;30.23;4.70;;;24.00;41.10;;;;;;4967932;28;20070;-66
2022/03/29 02:03:22;;;;;;;38.40;3.42;;;24.00;42.50;;;;;;4985611;28;20156;-68
2022/03/29 02:05:49;;;;;;;37.85;3.65;;;24.00;42.10;;;;;;4974431;28;20105;-68
2022/03/29 02:08:16;;;;;;;74.50;5.57;;;23.90;40.80;;;;;;4993446;28;20518;-68
2022/03/29 02:10:43;;;;;;;125.00;6.68;;;23.90;40.80;;;;;;4973942;28;20098;-69
2022/03/29 02:13:09;;;;;;;135.23;6.88;;;23.70;41.40;;;;;;4970264;28;20102;-66
2022/03/29 02:15:38;;;;;;;53.58;3.53;;;23.40;44.70;;;;;;4974370;28;20078;-69
2022/03/29 02:18:05;;;;;;;28.67;2.42;;;22.80;53.60;;;;;;4972628;28;20091;-70
2022/03/29 02:20:31;;;;;;;14.70;1.83;;;22.30;56.60;;;;;;4975563;28;20081;-68
2022/03/29 02:23:03;;;;;;;7.75;1.80;;;22.00;56.90;;;;;;4980203;28;20190;-67
2022/03/29 02:25:30;;;;;;;10.18;1.20;;;21.80;57.40;;;;;;4987325;28;20112;-68
2022/03/29 02:27:56;;;;;;;7.13;1.15;;;21.70;59.10;;;;;;4986783;28;20540;-67
2022/03/29 02:30:23;;;;;;;2.38;0.77;;;21.70;59.30;;;;;;4977136;28;20074;-65
2022/03/29 02:32:49;;;;;;;5.00;1.50;;;21.70;57.50;;;;;;4991545;28;20592;-66
2022/03/29 02:35:16;;;;;;;4.15;0.90;;;21.80;56.40;;;;;;4996913;28;20149;-66
2022/03/29 02:37:42;;;;;;;4.97;0.93;;;21.80;56.30;;;;;;5007725;28;20125;-69
2022/03/29 02:40:11;;;;;;;3.17;1.10;;;21.90;55.00;;;;;;4978281;28;20612;-68
2022/03/29 02:42:44;;;;;;;7.55;1.20;;;21.80;53.30;;;;;;4977006;28;20161;-69
2022/03/29 02:45:18;;;;;;;5.93;1.00;;;21.80;53.20;;;;;;4979410;28;20182;-69
2022/03/29 02:47:50;;;;;;;7.10;1.30;;;21.90;52.40;;;;;;4972713;28;20069;-68
2022/03/29 02:50:17;;;;;;;3.30;0.70;;;21.90;51.50;;;;;;4980580;28;20066;-69
2022/03/29 02:52:54;;;;;;;5.50;0.80;;;21.90;50.80;;;;;;4974850;28;20098;-67
2022/03/29 02:55:24;;;;;;;5.90;0.80;;;22.00;50.90;;;;;;4975306;28;20070;-66
2022/03/29 02:57:50;;;;;;;1.58;0.70;;;22.00;49.30;;;;;;4979423;28;20082;-67
2022/03/29 03:00:18;;;;;;;5.38;0.88;;;22.00;49.00;;;;;;4976245;28;20097;-68
2022/03/29 03:02:50;;;;;;;6.65;0.95;;;22.00;49.00;;;;;;4987699;28;20073;-69
2022/03/29 03:05:19;;;;;;;10.60;2.80;;;21.90;48.90;;;;;;4978694;28;20077;-69
2022/03/29 03:07:46;;;;;;;17.95;2.50;;;21.80;49.40;;;;;;4988871;28;20089;-69
2022/03/29 03:10:14;;;;;;;10.93;2.67;;;21.70;51.90;;;;;;4987689;28;20422;-68
2022/03/29 03:12:45;;;;;;;9.55;1.35;;;21.60;53.30;;;;;;4971977;28;20106;-68
2022/03/29 03:15:18;;;;;;;6.68;0.98;;;21.50;53.90;;;;;;4987041;28;20121;-68
2022/03/29 03:17:45;;;;;;;7.57;1.80;;;21.40;54.10;;;;;;4989147;28;20106;-67
2022/03/29 03:20:12;;;;;;;6.13;1.90;;;21.30;54.50;;;;;;4980856;28;20079;-67
2022/03/29 03:22:40;;;;;;;2.58;1.63;;;21.30;54.40;;;;;;4973394;28;20139;-67
2022/03/29 03:25:07;;;;;;;2.80;1.00;;;21.20;54.20;;;;;;4987672;28;20568;-65
2022/03/29 03:27:38;;;;;;;8.88;5.05;;;21.20;54.50;;;;;;4978661;28;20138;-67
2022/03/29 03:30:06;;;;;;;3.70;1.30;;;21.20;54.40;;;;;;4978401;28;20095;-68
2022/03/29 03:32:32;;;;;;;2.15;0.70;;;21.10;54.20;;;;;;4974200;28;20083;-66
2022/03/29 03:34:59;;;;;;;6.38;0.70;;;21.00;54.00;;;;;;4974646;28;20128;-69
2022/03/29 03:37:28;;;;;;;4.72;0.70;;;21.00;54.20;;;;;;4988119;28;20489;-69
2022/03/29 03:39:55;;;;;;;4.07;1.10;;;21.00;53.70;;;;;;4984084;28;20078;-66
2022/03/29 03:42:21;;;;;;;4.75;2.30;;;21.00;53.70;;;;;;4988288;28;20137;-69
2022/03/29 03:44:48;;;;;;;3.67;0.80;;;21.00;54.00;;;;;;4971341;28;20519;-68
2022/03/29 03:47:14;;;;;;;3.55;0.63;;;21.00;54.30;;;;;;4985686;28;20078;-69
2022/03/29 03:49:40;;;;;;;2.15;0.70;;;21.00;54.20;;;;;;4980050;28;20107;-69
2022/03/29 03:52:07;;;;;;;10.82;0.80;;;20.90;54.70;;;;;;4971212;28;20071;-68
2022/03/29 03:54:35;;;;;;;7.78;1.05;;;20.80;54.80;;;;;;4970017;28;20566;-68
2022/03/29 03:57:02;;;;;;;5.68;1.30;;;20.60;55.00;;;;;;4976078;28;20555;-69
2022/03/29 03:59:28;;;;;;;8.02;1.73;;;20.50;55.00;;;;;;4981908;28;20081;-69
2022/03/29 04:01:55;;;;;;;14.55;1.52;;;20.50;55.40;;;;;;4973136;28;20542;-68
2022/03/29 04:04:21;;;;;;;14.35;2.10;;;20.50;55.30;;;;;;4992073;28;20181;-68
2022/03/29 04:06:48;;;;;;;18.70;2.60;;;20.40;55.30;;;;;;4974688;28;20083;-69
2022/03/29 04:09:14;;;;;;;;;;;20.40;54.40;;;;;;4978171;28;20105;-70
2022/03/29 04:11:40;;;;;;;20.75;2.40;;;20.30;54.20;;;;;;4991769;28;20497;-67
2022/03/29 04:14:06;;;;;;;28.83;2.80;;;20.20;54.30;;;;;;4972224;28;20083;-69
2022/03/29 04:16:33;;;;;;;39.90;3.50;;;20.30;54.20;;;;;;4986573;28;20450;-70
2022/03/29 04:18:59;;;;;;;26.80;2.25;;;20.20;53.80;;;;;;4987131;28;20147;-70
2022/03/29 04:21:26;;;;;;;;;;;20.10;52.40;;;;;;4987236;28;20071;-68
2022/03/29 04:23:52;;;;;;;18.88;1.88;;;20.10;52.10;;;;;;4973007;28;19978;-67
2022/03/29 04:26:19;;;;;;;17.73;2.03;;;20.00;50.90;;;;;;5004039;28;20075;-70
2022/03/29 04:28:45;;;;;;;;;;;20.00;50.50;;;;;;4978706;28;20575;-69
2022/03/29 04:31:11;;;;;;;25.23;3.13;;;19.90;50.40;;;;;;4974286;28;20322;-69
2022/03/29 04:33:38;;;;;;;;;;;19.80;50.10;;;;;;4974969;28;20487;-69
2022/03/29 04:36:05;;;;;;;25.20;2.92;;;19.90;49.40;;;;;;4973314;28;20325;-70
2022/03/29 04:38:31;;;;;;;24.95;3.38;;;19.80;48.90;;;;;;4973390;28;20079;-67
2022/03/29 04:40:58;;;;;;;43.35;3.83;;;19.80;48.50;;;;;;5002293;28;20094;-68
2022/03/29 04:43:25;;;;;;;35.88;3.80;;;19.80;47.90;;;;;;4970760;28;20099;-69
2022/03/29 04:45:51;;;;;;;32.55;3.33;;;19.80;46.60;;;;;;4973030;28;20079;-67
2022/03/29 04:48:17;;;;;;;43.13;3.40;;;19.90;46.50;;;;;;4972894;28;20094;-70
2022/03/29 04:50:44;;;;;;;41.80;4.05;;;19.80;45.80;;;;;;4993610;28;20169;-70
2022/03/29 04:53:11;;;;;;;42.75;4.38;;;19.80;46.00;;;;;;4988591;28;20606;-68
2022/03/29 04:55:37;;;;;;;44.22;4.80;;;19.80;46.10;;;;;;4993833;28;20099;-70
2022/03/29 04:58:03;;;;;;;;;;;19.70;46.10;;;;;;4986034;28;20157;-69
2022/03/29 05:00:29;;;;;;;53.95;4.95;;;19.70;46.40;;;;;;4984820;28;20409;-67
2022/03/29 05:02:56;;;;;;;55.95;7.07;;;19.80;46.60;;;;;;4985162;28;20087;-68
2022/03/29 05:05:23;;;;;;;45.13;4.22;;;19.70;47.20;;;;;;4982518;28;20059;-70
2022/03/29 05:07:50;;;;;;;44.00;4.47;;;19.60;48.00;;;;;;4986618;28;20078;-73
2022/03/29 05:10:17;;;;;;;31.88;3.15;;;19.60;48.30;;;;;;4975350;28;20070;-68
2022/03/29 05:12:51;;;;;;;43.60;3.95;;;19.40;48.60;;;;;;4987837;28;20539;-70
2022/03/29 05:15:21;;;;;;;30.30;3.80;;;19.40;48.90;;;;;;5006392;28;20077;-66
2022/03/29 05:17:47;;;;;;;34.08;3.95;;;19.40;48.70;;;;;;4990830;28;20133;-70
2022/03/29 05:20:16;;;;;;;28.08;3.83;;;19.30;48.20;;;;;;4976293;28;20075;-66
2022/03/29 05:22:45;;;;;;;31.25;3.50;;;19.30;47.50;;;;;;4973463;28;20071;-72
2022/03/29 05:25:13;;;;;;;26.40;3.22;;;19.30;47.60;;;;;;4970979;28;20091;-70
2022/03/29 05:27:40;;;;;;;31.05;3.10;;;19.40;47.40;;;;;;4969476;28;20111;-68
2022/03/29 05:30:08;;;;;;;34.95;3.40;;;19.50;47.00;;;;;;4971044;28;20190;-69
2022/03/29 05:32:34;;;;;;;27.65;2.97;;;19.50;47.00;;;;;;4975638;28;20106;-68
2022/03/29 05:35:01;;;;;;;24.55;2.95;;;19.50;47.40;;;;;;4993736;28;20098;-70
2022/03/29 05:37:27;;;;;;;30.73;3.08;;;19.60;47.40;;;;;;4970890;28;20083;-68
2022/03/29 05:39:53;;;;;;;28.65;3.42;;;19.60;47.30;;;;;;4992298;28;20075;-68
2022/03/29 05:42:21;;;;;;;30.27;4.00;;;19.50;47.30;;;;;;4971650;28;20117;-70
2022/03/29 05:44:47;;;;;;;24.38;3.80;;;19.50;48.80;;;;;;4983806;28;20091;-71
2022/03/29 05:49:58;;;;;;;32.38;3.75;;;19.70;49.10;;;;;;4981133;28;20093;-69
2022/03/29 05:52:25;;;;;;;31.80;3.78;;;19.80;48.70;;;;;;4977222;28;20067;-69
2022/03/29 05:54:52;;;;;;;18.00;3.10;;;19.90;48.20;;;;;;4986485;28;20103;-70
2022/03/29 05:57:19;;;;;;;29.25;3.45;;;20.10;47.20;;;;;;4988354;28;20091;-69
2022/03/29 05:59:45;;;;;;;44.30;3.97;;;20.10;46.90;;;;;;4987280;28;20079;-70
2022/03/29 06:02:13;;;;;;;35.63;4.63;;;20.30;47.00;;;;;;4981438;28;20091;-72
2022/03/29 06:04:42;;;;;;;21.15;2.90;;;20.20;46.70;;;;;;4989391;28;20099;-70
2022/03/29 06:07:08;;;;;;;24.15;2.75;;;20.50;46.50;;;;;;4992577;28;20302;-66
2022/03/29 06:09:35;;;;;;;36.63;3.42;;;20.50;46.20;;;;;;4974974;28;20075;-72
2022/03/29 06:12:03;;;;;;;27.50;3.65;;;20.50;46.00;;;;;;4975178;28;20067;-69
2022/03/29 06:14:29;;;;;;;36.85;3.95;;;20.40;45.50;;;;;;4980607;28;20469;-66
2022/03/29 06:16:56;;;;;;;35.75;3.40;;;20.30;45.70;;;;;;4986930;28;20075;-69
2022/03/29 06:19:22;;;;;;;33.75;3.80;;;20.20;44.60;;;;;;4989272;28;20071;-69
2022/03/29 06:21:49;;;;;;;36.30;3.28;;;20.00;45.60;;;;;;4988934;28;20075;-70
2022/03/29 06:24:15;;;;;;;21.95;2.80;;;19.80;44.80;;;;;;4990634;28;20090;-67
2022/03/29 06:26:42;;;;;;;23.80;3.30;;;19.70;43.70;;;;;;4983300;28;20157;-70
2022/03/29 06:29:12;;;;;;;27.95;3.15;;;19.90;43.20;;;;;;4988238;28;20526;-69
2022/03/29 06:31:40;;;;;;;22.88;3.00;;;19.70;42.80;;;;;;4974940;28;20527;-68
2022/03/29 06:34:06;;;;;;;25.58;3.42;;;19.90;43.10;;;;;;4991377;28;20079;-67
2022/03/29 06:36:33;;;;;;;21.33;3.38;;;20.00;42.70;;;;;;4990299;28;20596;-68
2022/03/29 06:38:59;;;;;;;23.35;2.75;;;20.00;42.50;;;;;;4996024;28;20091;-67
2022/03/29 06:41:26;;;;;;;24.35;2.88;;;20.10;42.50;;;;;;4990095;28;20079;-69
2022/03/29 06:43:53;;;;;;;28.25;3.45;;;20.20;42.10;;;;;;4989942;28;20095;-69
2022/03/29 06:46:19;;;;;;;;;;;20.20;42.20;;;;;;4993116;28;20126;-68
2022/03/29 06:48:45;;;;;;;20.95;2.95;;;20.10;42.10;;;;;;4977187;28;19958;-68
2022/03/29 06:51:16;;;;;;;18.10;3.20;;;20.10;42.40;;;;;;4987016;28;20888;-68
2022/03/29 06:53:42;;;;;;;23.30;3.40;;;20.30;42.50;;;;;;5004949;28;20089;-68
2022/03/29 06:56:09;;;;;;;23.80;3.67;;;20.30;42.50;;;;;;4988057;28;20098;-70
2022/03/29 06:58:37;;;;;;;24.40;2.75;;;20.10;42.90;;;;;;4989239;28;20499;-69
2022/03/29 07:01:04;;;;;;;23.15;2.85;;;20.30;43.20;;;;;;4978880;28;20080;-69
2022/03/29 07:03:32;;;;;;;17.67;2.60;;;20.20;43.20;;;;;;4987808;28;20182;-69
2022/03/29 07:05:59;;;;;;;12.90;2.28;;;20.20;43.80;;;;;;4986396;28;20078;-70
2022/03/29 07:08:26;;;;;;;6.45;1.60;;;20.10;44.00;;;;;;4993238;28;20189;-67
2022/03/29 07:13:38;;;;;;;10.35;1.92;;;19.90;45.00;;;;;;4976502;28;20078;-71
2022/03/29 07:16:05;;;;;;;10.48;2.30;;;19.90;45.20;;;;;;4991023;28;20114;-68
2022/03/29 07:18:32;;;;;;;6.75;1.85;;;20.00;45.30;;;;;;4973546;28;20071;-69
2022/03/29 07:20:58;;;;;;;10.95;2.38;;;19.80;45.20;;;;;;4971107;28;20094;-68
2022/03/29 07:23:25;;;;;;;11.23;1.48;;;19.80;45.40;;;;;;4975961;28;20137;-71
2022/03/29 07:25:51;;;;;;;5.43;1.30;;;19.60;45.60;;;;;;4985712;28;20211;-68
2022/03/29 07:28:18;;;;;;;8.98;1.70;;;19.60;45.60;;;;;;4973542;28;21337;-68
2022/03/29 07:30:45;;;;;;;10.25;1.27;;;19.50;46.00;;;;;;4996352;28;20071;-68
2022/03/29 07:33:13;;;;;;;7.82;1.00;;;19.40;46.30;;;;;;4988197;28;20947;-70
2022/03/29 07:35:40;;;;;;;7.30;1.17;;;19.40;46.50;;;;;;4976117;28;20073;-71
2022/03/29 07:38:09;;;;;;;7.35;1.27;;;19.40;46.60;;;;;;4987476;28;20087;-70
2022/03/29 07:40:37;;;;;;;4.32;0.90;;;19.30;46.90;;;;;;4986763;28;20084;-68
2022/03/29 07:43:05;;;;;;;11.85;1.20;;;19.20;47.20;;;;;;4973436;28;20094;-70
2022/03/29 07:45:32;;;;;;;6.45;1.02;;;19.20;47.40;;;;;;4987363;28;20094;-67
2022/03/29 07:47:59;;;;;;;4.57;0.90;;;19.10;47.50;;;;;;4971768;28;20539;-68
2022/03/29 07:50:26;;;;;;;3.00;0.70;;;18.90;48.40;;;;;;4986511;28;20075;-69
2022/03/29 07:52:54;;;;;;;3.45;0.80;;;19.00;48.80;;;;;;4980629;28;20140;-67
2022/03/29 07:55:20;;;;;;;5.38;1.45;;;19.00;49.10;;;;;;5004887;28;20086;-67
2022/03/29 07:57:47;;;;;;;3.13;0.90;;;19.00;49.70;;;;;;4990414;28;20550;-66
2022/03/29 08:00:32;;;;;;;9.85;1.00;;;19.00;50.30;;;;;;4986765;28;20184;-67
2022/03/29 08:03:10;;;;;;;5.68;1.02;;;19.00;50.60;;;;;;4972755;28;20264;-67
2022/03/29 08:05:39;;;;;;;2.53;0.82;;;18.90;51.10;;;;;;4976681;28;20082;-67
2022/03/29 08:08:06;;;;;;;5.75;1.02;;;18.90;51.70;;;;;;4987221;28;20118;-67
2022/03/29 08:10:33;;;;;;;3.92;0.93;;;18.90;52.30;;;;;;4971948;28;20081;-67
2022/03/29 08:13:03;;;;;;;6.97;1.05;;;18.80;53.10;;;;;;4976483;28;20091;-69
2022/03/29 08:15:29;;;;;;;13.70;1.30;;;18.70;54.20;;;;;;4972034;28;20075;-68
2022/03/29 08:17:59;;;;;;;6.68;1.17;;;18.60;55.20;;;;;;4974697;28;20063;-66
2022/03/29 08:20:27;;;;;;;3.88;1.10;;;18.50;56.00;;;;;;4976089;28;20136;-67
2022/03/29 08:22:58;;;;;;;4.25;0.90;;;18.40;56.50;;;;;;4974959;28;20067;-68
2022/03/29 08:25:25;;;;;;;5.38;0.73;;;18.40;56.90;;;;;;4977977;28;20532;-67
2022/03/29 08:27:54;;;;;;;1.48;0.60;;;18.30;57.10;;;;;;4987380;28;20118;-69
2022/03/29 08:30:20;;;;;;;1.77;0.60;;;18.20;57.40;;;;;;4992196;28;20068;-67
2022/03/29 08:32:46;;;;;;;;;;;18.00;57.70;;;;;;4997337;28;20084;-66
2022/03/29 08:35:13;;;;;;;3.22;0.65;;;18.00;57.60;;;;;;4990819;28;20492;-69
2022/03/29 08:37:40;;;;;;;5.43;0.47;;;18.00;57.60;;;;;;4970184;28;20482;-68
2022/03/29 08:40:12;;;;;;;0.70;0.43;;;18.10;57.60;;;;;;4976482;28;20450;-68
2022/03/29 08:42:43;;;;;;;3.63;0.50;;;17.90;57.30;;;;;;4985019;28;20082;-68
2022/03/29 08:45:12;;;;;;;6.65;0.50;;;17.90;59.70;;;;;;4975863;28;20090;-66
2022/03/29 08:47:41;;;;;;;4.03;0.70;;;17.70;62.50;;;;;;4977072;28;20099;-65
2022/03/29 08:50:09;;;;;;;2.08;0.65;;;17.40;63.80;;;;;;4984899;28;20071;-64
2022/03/29 08:52:36;;;;;;;2.33;0.32;;;17.00;65.50;;;;;;4984942;28;20462;-68
2022/03/29 08:55:04;;;;;;;5.22;0.50;;;16.90;68.10;;;;;;4969275;28;20430;-67
2022/03/29 08:57:31;;;;;;;3.20;0.70;;;16.80;68.50;;;;;;4987555;28;20110;-66
2022/03/29 08:59:59;;;;;;;1.58;0.50;;;16.70;69.50;;;;;;4984536;28;20094;-66
2022/03/29 09:02:25;;;;;;;2.38;0.70;;;16.70;70.60;;;;;;4981473;28;20086;-63
2022/03/29 09:05:15;;;;;;;2.58;0.80;;;16.50;72.10;;;;;;4980338;28;20094;-66
2022/03/29 09:08:00;;;;;;;5.05;0.70;;;16.60;74.50;;;;;;4960253;28;20172;-64
2022/03/29 09:10:45;;;;;;;4.72;1.02;;;16.50;76.90;;;;;;4972040;28;20114;-63
2022/03/29 09:13:20;;;;;;;3.58;1.00;;;16.50;79.30;;;;;;4975537;28;20181;-65
2022/03/29 09:15:48;;;;;;;4.05;1.10;;;16.50;79.30;;;;;;4975166;28;20124;-65
2022/03/29 09:18:16;;;;;;;5.20;1.30;;;16.50;79.60;;;;;;4975730;28;20075;-65
2022/03/29 09:20:45;;;;;;;7.28;1.30;;;16.60;80.10;;;;;;4976648;28;20562;-64
2022/03/29 09:23:17;;;;;;;5.50;1.23;;;16.60;81.70;;;;;;4971177;28;20075;-64
2022/03/29 09:25:48;;;;;;;3.50;1.05;;;16.50;82.80;;;;;;4985649;28;20063;-65
2022/03/29 09:28:16;;;;;;;5.45;1.27;;;16.60;82.90;;;;;;4955050;28;20169;-65
2022/03/29 09:30:51;;;;;;;9.10;1.17;;;16.50;84.00;;;;;;4970074;28;20103;-63
2022/03/29 09:33:31;;;;;;;4.95;1.35;;;16.50;85.70;;;;;;4986326;28;20084;-64
2022/03/29 09:36:02;;;;;;;6.30;1.05;;;16.40;86.00;;;;;;4976823;28;20486;-65
2022/03/29 09:38:30;;;;;;;3.92;0.93;;;16.40;86.20;;;;;;4967995;28;20075;-64
2022/03/29 09:40:58;;;;;;;4.20;0.82;;;16.50;86.20;;;;;;4969893;28;20519;-64
2022/03/29 09:43:26;;;;;;;2.63;0.70;;;16.50;85.60;;;;;;4974961;28;20154;-64
2022/03/29 09:45:57;;;;;;;5.00;1.10;;;16.50;85.10;;;;;;4987911;28;20076;-65
2022/03/29 09:48:25;;;;;;;2.08;0.75;;;16.50;84.60;;;;;;4975275;28;20111;-65
2022/03/29 09:51:12;;;;;;;5.25;0.90;;;16.60;83.60;;;;;;4987437;28;20454;-65
2022/03/29 09:53:52;;;;;;;2.33;0.57;;;16.60;83.60;;;;;;4992199;28;20087;-65
2022/03/29 09:56:28;;;;;;;1.25;0.70;;;16.70;82.00;;;;;;5002884;28;20097;-64
2022/03/29 09:59:14;;;;;;;4.25;1.05;;;16.70;82.60;;;;;;4972105;28;20101;-64
2022/03/29 10:01:51;;;;;;;3.92;0.90;;;16.70;83.00;;;;;;4986737;28;20166;-66
2022/03/29 10:04:18;;;;;;;1.73;0.50;;;16.60;83.60;;;;;;5003435;28;20559;-65
2022/03/29 10:06:48;;;;;;;2.70;0.70;;;16.50;84.40;;;;;;4973929;28;20171;-65
2022/03/29 10:09:27;;;;;;;4.78;0.85;;;16.60;83.90;;;;;;4985955;28;20063;-64
2022/03/29 10:11:59;;;;;;;1.45;0.68;;;16.60;83.20;;;;;;4956179;28;20075;-63
2022/03/29 10:14:27;;;;;;;4.22;0.95;;;16.50;82.50;;;;;;4975013;28;20134;-64
2022/03/29 10:16:55;;;;;;;3.45;0.73;;;16.60;82.40;;;;;;4970461;28;20515;-64
2022/03/29 10:19:22;;;;;;;4.97;1.13;;;16.50;81.10;;;;;;4983031;28;20086;-65
2022/03/29 10:21:48;;;;;;;3.08;0.80;;;16.50;80.20;;;;;;4986805;28;20086;-66
2022/03/29 10:24:18;;;;;;;2.85;0.47;;;16.50;74.90;;;;;;4976307;28;20558;-64
2022/03/29 10:26:46;;;;;;;2.83;0.70;;;16.60;68.70;;;;;;4975721;28;20072;-65
2022/03/29 10:29:13;;;;;;;5.35;0.70;;;16.60;66.60;;;;;;4969988;28;20593;-66
2022/03/29 10:31:57;;;;;;;5.03;0.98;;;16.70;64.90;;;;;;4971054;28;20779;-64
2022/03/29 10:34:27;;;;;;;3.92;0.55;;;16.70;64.30;;;;;;4986691;28;20431;-65
2022/03/29 10:37:07;;;;;;;4.40;0.80;;;16.70;64.40;;;;;;4970504;28;20087;-63
2022/03/29 10:39:54;;;;;;;3.83;0.43;;;16.70;63.90;;;;;;5003543;28;20447;-64
2022/03/29 10:42:34;;;;;;;3.63;0.80;;;16.60;62.40;;;;;;5006373;28;20114;-65
2022/03/29 10:45:09;;;;;;;3.25;0.70;;;16.70;61.90;;;;;;4993810;28;20189;-66
2022/03/29 10:47:36;;;;;;;3.22;1.00;;;16.70;60.60;;;;;;4973855;28;20185;-65
2022/03/29 10:50:05;;;;;;;4.05;0.73;;;16.70;59.90;;;;;;4986641;28;20079;-64
2022/03/29 10:52:37;;;;;;;2.25;0.52;;;16.70;60.10;;;;;;4990223;28;20087;-65
2022/03/29 10:55:28;;;;;;;2.88;0.50;;;16.70;60.00;;;;;;4986804;28;20078;-64
2022/03/29 10:58:07;;;;;;;2.30;0.73;;;16.70;59.90;;;;;;4990248;28;20114;-64
2022/03/29 11:00:36;;;;;;;1.65;0.40;;;16.70;59.90;;;;;;4980646;28;20094;-66
2022/03/29 11:03:14;;;;;;;2.50;0.50;;;16.70;59.70;;;;;;4976464;28;20551;-66
2022/03/29 11:06:02;;;;;;;1.35;0.47;;;16.70;59.30;;;;;;4977801;28;20099;-66
2022/03/29 11:08:30;;;;;;;1.48;0.60;;;16.80;58.90;;;;;;4976493;28;20444;-65
2022/03/29 11:11:00;;;;;;;1.13;0.45;;;16.80;58.20;;;;;;4986469;28;20079;-63
2022/03/29 11:13:32;;;;;;;3.92;0.50;;;16.80;58.30;;;;;;4987704;28;20099;-63
2022/03/29 11:16:02;;;;;;;3.72;0.73;;;16.90;58.60;;;;;;4977318;28;20083;-63
2022/03/29 11:18:32;;;;;;;2.70;0.60;;;16.80;58.70;;;;;;4979596;28;20126;-66
2022/03/29 11:21:03;;;;;;;1.77;0.70;;;16.80;58.60;;;;;;4977403;28;20139;-64
2022/03/29 11:23:40;;;;;;;2.20;0.68;;;16.80;58.60;;;;;;4975853;28;20100;-65
2022/03/29 11:26:15;;;;;;;3.50;1.10;;;16.80;58.00;;;;;;4988531;28;20546;-65
2022/03/29 11:28:54;;;;;;;5.25;0.77;;;16.80;58.10;;;;;;4975713;28;20114;-64
2022/03/29 11:31:22;;;;;;;6.07;0.90;;;16.90;57.90;;;;;;5004711;28;20446;-65
2022/03/29 11:33:50;;;;;;;4.22;1.02;;;16.80;57.90;;;;;;5003270;28;20102;-64
2022/03/29 11:36:22;;;;;;;3.85;0.70;;;16.80;58.20;;;;;;4975800;28;20086;-65
2022/03/29 11:38:49;;;;;;;5.32;0.90;;;16.80;58.50;;;;;;4989439;28;20170;-65
2022/03/29 11:41:21;;;;;;;;;;;16.80;58.80;;;;;;4975188;28;20478;-64
2022/03/29 11:43:56;;;;;;;5.25;0.88;;;16.70;58.90;;;;;;5004350;28;20021;-66
2022/03/29 11:46:23;;;;;;;6.15;0.80;;;16.80;59.10;;;;;;4972023;28;20086;-65
2022/03/29 11:48:51;;;;;;;4.32;0.68;;;16.90;59.10;;;;;;4973593;28;20075;-65
2022/03/29 11:51:17;;;;;;;3.85;0.80;;;16.90;59.30;;;;;;4977292;28;20084;-64
2022/03/29 11:53:44;;;;;;;2.95;0.60;;;16.80;60.30;;;;;;4978181;28;20083;-64
2022/03/29 11:56:19;;;;;;;4.22;0.70;;;16.80;60.60;;;;;;4977550;28;20122;-67
2022/03/29 11:58:54;;;;;;;3.45;0.80;;;16.80;60.50;;;;;;5004320;28;20078;-63
2022/03/29 12:01:34;;;;;;;3.60;0.77;;;16.70;60.70;;;;;;4974433;28;20079;-65
2022/03/29 12:04:05;;;;;;;3.17;0.50;;;16.70;60.60;;;;;;4970911;28;20087;-67
2022/03/29 12:06:33;;;;;;;2.03;0.52;;;16.70;60.60;;;;;;4986082;28;20456;-64
2022/03/29 12:08:59;;;;;;;2.88;0.47;;;16.70;60.50;;;;;;4987943;28;20719;-64
2022/03/29 12:11:27;;;;;;;;;;;16.80;59.60;;;;;;4994121;28;20099;-64
2022/03/29 12:14:04;;;;;;;;;;;16.80;59.00;;;;;;4977625;28;20441;-64
2022/03/29 12:16:39;;;;;;;1.23;0.40;;;16.70;58.50;;;;;;4974664;28;19964;-65
2022/03/29 12:19:17;;;;;;;1.48;0.30;;;16.70;58.10;;;;;;4975890;28;20079;-66
2022/03/29 12:21:53;;;;;;;0.65;0.30;;;16.70;57.70;;;;;;4976583;28;20127;-64
2022/03/29 12:24:21;;;;;;;1.20;0.28;;;16.70;57.60;;;;;;4971550;28;20087;-63
2022/03/29 12:26:50;;;;;;;1.25;0.40;;;16.70;57.70;;;;;;4955194;28;20524;-64
2022/03/29 12:29:20;;;;;;;1.33;0.40;;;16.60;57.90;;;;;;4979713;28;20115;-64
2022/03/29 12:31:48;;;;;;;3.38;0.65;;;16.70;58.70;;;;;;4990187;28;20070;-66
2022/03/29 12:34:21;;;;;;;5.18;0.50;;;16.70;58.40;;;;;;4994468;28;20539;-63
2022/03/29 12:36:53;;;;;;;2.08;0.70;;;16.60;58.80;;;;;;4977436;28;20106;-67
2022/03/29 12:39:19;;;;;;;0.28;0.28;;;16.60;59.10;;;;;;4979196;28;20079;-64
2022/03/29 12:41:51;;;;;;;0.93;0.30;;;16.60;59.10;;;;;;4978055;28;20083;-64
2022/03/29 12:44:43;;;;;;;6.53;0.60;;;16.60;59.20;;;;;;4975397;28;20141;-64
2022/03/29 12:47:11;;;;;;;0.55;0.40;;;16.60;59.40;;;;;;4976004;28;20070;-63
2022/03/29 12:49:39;;;;;;;1.65;0.60;;;16.50;59.70;;;;;;4972533;28;20078;-65
2022/03/29 12:52:09;;;;;;;3.75;0.50;;;16.60;59.60;;;;;;4971756;28;20076;-64
2022/03/29 12:54:58;;;;;;;1.23;0.32;;;16.60;59.60;;;;;;4953952;28;20476;-63
2022/03/29 12:57:43;;;;;;;2.08;0.43;;;16.60;59.80;;;;;;4974309;28;20091;-66